Terminal Aerodrome Forecast
Issued by NWS

Home | Current Version | Previous Version | Text Only | Print | Product List | Glossary On
Versions: 1 2 3 4 5 6 7 8 9 10 11 12 13 14 15 16 17 18 19 20 21 22 23 24 25 26 27 28 29 30 31 32 33 34 35 36 37 38 39 40 41 42 43 44 45 46 47 48 49 50
000
FTUS44 KHGX 191339 AAB
TAFUTS
TAF AMD
KUTS 191339Z 1914/2012 VRB06KT P6SM BKN005 BKN020 BKN060
     FM191600 VRB06KT P6SM VCSH FEW005 SCT025 BKN090
     FM192200 12005KT P6SM VCTS SCT025CB BKN060 BKN250
     FM200000 10004KT P6SM SCT020
     FM200600 08004KT P6SM BKN020=

USA.gov is the U.S. government's official web portal to all federal, state and local government web resources and services.